createdAt,value
2022-08-01T00:00:09.142Z,1.15
2022-08-01T00:02:36.833Z,1.45
2022-08-01T00:05:03.623Z,1.30
2022-08-01T00:07:30.224Z,1.10
2022-08-01T00:09:56.746Z,1.10
2022-08-01T00:12:23.314Z,1.27
2022-08-01T00:14:50.056Z,1.08
2022-08-01T00:17:16.790Z,0.98
2022-08-01T00:19:43.332Z,1.40
2022-08-01T00:22:10.177Z,1.10
2022-08-01T00:24:36.864Z,1.42
2022-08-01T00:27:03.482Z,1.20
2022-08-01T00:30:11.862Z,0.95
2022-08-01T00:32:16.915Z,1.40
2022-08-01T00:34:43.455Z,1.35
2022-08-01T00:37:10.370Z,1.50
2022-08-01T00:39:42.077Z,1.30
2022-08-01T00:42:10.447Z,1.48
2022-08-01T00:44:37.230Z,1.23
2022-08-01T00:47:04.602Z,0.77
2022-08-01T00:49:31.667Z,1.00
2022-08-01T00:51:59.418Z,1.40
2022-08-01T00:54:27.695Z,1.17
2022-08-01T00:56:55.040Z,1.52
2022-08-01T00:59:25.932Z,1.77
2022-08-01T01:01:53.709Z,1.15
2022-08-01T01:04:20.486Z,1.13
2022-08-01T01:06:49.867Z,1.23
2022-08-01T01:09:22.092Z,1.45
2022-08-01T01:12:06.000Z,1.33
2022-08-01T01:14:39.035Z,1.10
2022-08-01T01:17:09.896Z,1.42
2022-08-01T01:19:44.198Z,1.40
2022-08-01T01:22:47.347Z,1.23
2022-08-01T01:25:23.068Z,1.35
2022-08-01T01:28:03.169Z,1.48
2022-08-01T01:30:31.981Z,1.17
2022-08-01T01:33:02.209Z,1.70
2022-08-01T01:35:33.470Z,1.35
2022-08-01T01:38:10.170Z,1.42
2022-08-01T01:40:39.013Z,1.33
2022-08-01T01:43:10.653Z,1.38
2022-08-01T01:45:38.465Z,1.60
2022-08-01T01:48:07.442Z,1.80
2022-08-01T01:50:35.787Z,1.30
2022-08-01T01:53:05.113Z,1.55
2022-08-01T01:55:33.505Z,1.38
2022-08-01T01:58:16.979Z,1.52
2022-08-01T02:00:45.554Z,1.52
2022-08-01T02:03:13.351Z,1.45
2022-08-01T02:05:43.146Z,1.88
2022-08-01T02:08:11.855Z,1.55
2022-08-01T02:10:40.255Z,1.50
2022-08-01T02:13:07.569Z,1.50
2022-08-01T02:15:59.913Z,1.50
2022-08-01T02:18:26.858Z,1.05
2022-08-01T02:20:55.871Z,1.35
2022-08-01T02:23:25.146Z,2.25
2022-08-01T02:26:09.627Z,1.60
2022-08-01T02:28:46.673Z,1.30
2022-08-01T02:31:15.431Z,1.55
2022-08-01T02:33:49.286Z,2.03
2022-08-01T02:36:31.206Z,1.85
2022-08-01T02:39:04.404Z,1.83
2022-08-01T02:41:32.590Z,1.70
2022-08-01T02:44:04.283Z,1.45
2022-08-01T02:46:53.112Z,4.53
2022-08-01T02:49:22.201Z,5.10
2022-08-01T02:51:50.223Z,5.20
2022-08-01T02:54:19.743Z,3.22
2022-08-01T02:56:49.341Z,1.65
2022-08-01T02:59:21.408Z,1.13
2022-08-01T03:01:50.874Z,1.73
2022-08-01T03:04:19.806Z,1.60
2022-08-01T03:06:48.365Z,1.73
2022-08-01T03:09:16.823Z,1.63
2022-08-01T03:11:45.211Z,1.27
2022-08-01T03:14:13.814Z,1.70
2022-08-01T03:16:43.439Z,1.90
2022-08-01T03:19:11.935Z,1.52
2022-08-01T03:21:40.569Z,1.42
2022-08-01T03:24:08.474Z,1.80
2022-08-01T03:26:37.116Z,1.33
2022-08-01T03:29:10.882Z,1.33
2022-08-01T03:31:39.365Z,1.95
2022-08-01T03:34:07.044Z,1.63
2022-08-01T03:36:35.625Z,1.73
2022-08-01T03:39:05.067Z,1.80
2022-08-01T03:41:38.663Z,1.50
2022-08-01T03:44:11.322Z,2.00
2022-08-01T03:46:43.461Z,2.33
2022-08-01T03:49:24.667Z,1.80
2022-08-01T03:51:52.453Z,2.30
2022-08-01T03:54:23.841Z,2.25
2022-08-01T03:56:52.473Z,1.50
2022-08-01T03:59:20.132Z,1.45
2022-08-01T04:01:47.511Z,1.70
2022-08-01T04:04:14.651Z,1.77
2022-08-01T04:06:42.403Z,1.50
2022-08-01T04:09:13.399Z,1.40
2022-08-01T04:11:40.952Z,1.55
2022-08-01T04:14:08.672Z,1.48
2022-08-01T04:16:36.206Z,2.13
2022-08-01T04:19:03.641Z,3.38
2022-08-01T04:21:33.378Z,1.73
2022-08-01T04:24:05.957Z,1.45
2022-08-01T04:26:35.774Z,1.85
2022-08-01T04:29:05.868Z,1.30
2022-08-01T04:31:33.580Z,1.60
2022-08-01T04:34:03.226Z,1.65
2022-08-01T04:36:31.284Z,1.65
2022-08-01T04:39:01.216Z,1.75
2022-08-01T04:41:28.783Z,1.90
2022-08-01T04:43:56.054Z,1.60
2022-08-01T04:46:23.583Z,1.85
2022-08-01T04:48:51.495Z,1.75
2022-08-01T04:51:22.837Z,1.70
2022-08-01T04:53:51.925Z,1.70
2022-08-01T04:56:20.043Z,1.80
2022-08-01T04:58:46.562Z,1.70
2022-08-01T05:01:13.949Z,1.60
2022-08-01T05:03:40.715Z,1.90
2022-08-01T05:06:07.523Z,2.25
2022-08-01T05:08:34.129Z,1.60
2022-08-01T05:11:02.154Z,2.08
2022-08-01T05:13:28.853Z,1.63
2022-08-01T05:15:55.455Z,2.08
2022-08-01T05:18:28.288Z,1.98
2022-08-01T05:20:55.187Z,1.40
2022-08-01T05:23:40.376Z,1.83
2022-08-01T05:26:08.907Z,1.52
2022-08-01T05:28:36.421Z,2.47
2022-08-01T05:31:04.318Z,1.77
2022-08-01T05:33:30.875Z,2.00
2022-08-01T05:35:57.452Z,1.90
2022-08-01T05:38:23.966Z,2.42
2022-08-01T05:40:50.687Z,2.13
2022-08-01T05:43:17.293Z,2.00
2022-08-01T05:45:43.898Z,2.50
2022-08-01T05:48:10.499Z,2.90
2022-08-01T05:50:37.101Z,2.40
2022-08-01T05:53:03.627Z,2.83
2022-08-01T05:55:30.307Z,3.35
2022-08-01T05:57:56.810Z,3.30
2022-08-01T06:00:23.530Z,3.05
2022-08-01T06:02:50.101Z,2.67
2022-08-01T06:05:16.790Z,2.75
2022-08-01T06:07:43.439Z,2.10
2022-08-01T06:10:10.311Z,2.28
2022-08-01T06:12:37.684Z,2.88
2022-08-01T06:15:05.841Z,2.47
2022-08-01T06:17:32.545Z,2.00
2022-08-01T06:19:59.082Z,2.10
2022-08-01T06:22:25.627Z,2.65
2022-08-01T06:24:52.544Z,2.47
2022-08-01T06:27:21.948Z,2.30
2022-08-01T06:29:53.586Z,2.90
2022-08-01T06:32:26.828Z,3.03
2022-08-01T06:34:53.960Z,3.70
2022-08-01T06:37:20.509Z,3.13
2022-08-01T06:39:47.127Z,3.80
2022-08-01T06:42:15.830Z,3.83
2022-08-01T06:44:42.693Z,3.63
2022-08-01T06:47:09.220Z,3.75
2022-08-01T06:49:36.049Z,3.83
2022-08-01T06:52:04.425Z,4.40
2022-08-01T06:54:31.238Z,4.63
2022-08-01T06:56:57.758Z,4.40
2022-08-01T06:59:24.308Z,4.25
2022-08-01T07:01:50.919Z,4.30
2022-08-01T07:04:17.479Z,3.95
2022-08-01T07:06:44.018Z,4.50
2022-08-01T07:09:14.217Z,4.30
2022-08-01T07:11:42.025Z,4.25
2022-08-01T07:14:09.008Z,3.70
2022-08-01T07:16:35.620Z,3.72
2022-08-01T07:19:02.319Z,4.80
2022-08-01T07:21:40.345Z,5.10
2022-08-01T07:24:13.259Z,6.80
2022-08-01T07:26:53.133Z,6.35
2022-08-01T07:29:22.983Z,7.65
2022-08-01T07:31:49.547Z,7.55
2022-08-01T07:34:16.062Z,9.20
2022-08-01T07:36:43.455Z,9.25
2022-08-01T07:39:09.990Z,14.20
2022-08-01T07:41:52.768Z,11.52
2022-08-01T07:44:23.282Z,12.25
2022-08-01T07:46:49.847Z,9.25
2022-08-01T07:49:16.489Z,7.57
2022-08-01T07:51:43.062Z,8.52
2022-08-01T07:54:33.936Z,9.48
2022-08-01T07:57:02.098Z,12.65
2022-08-01T07:59:28.732Z,13.93
2022-08-01T08:01:55.361Z,17.35
2022-08-01T08:04:21.976Z,19.30
2022-08-01T08:06:48.687Z,18.88
2022-08-01T08:09:16.207Z,23.88
2022-08-01T08:11:48.124Z,32.17
2022-08-01T08:14:16.019Z,37.70
2022-08-01T08:16:43.771Z,41.08
2022-08-01T08:19:10.747Z,42.03
2022-08-01T08:21:38.774Z,42.40
2022-08-01T08:24:31.714Z,46.88
2022-08-01T08:27:00.353Z,44.67
2022-08-01T08:29:28.025Z,50.22
2022-08-01T08:31:58.627Z,44.17
2022-08-01T08:34:26.891Z,45.10
2022-08-01T08:36:55.584Z,48.80
2022-08-01T08:39:22.170Z,49.42
2022-08-01T08:41:50.019Z,52.13
2022-08-01T08:44:20.555Z,45.63
2022-08-01T08:46:49.999Z,49.25
2022-08-01T08:49:21.971Z,49.05
2022-08-01T08:51:51.289Z,48.78
2022-08-01T08:54:21.739Z,46.47
2022-08-01T08:56:49.485Z,48.38
2022-08-01T08:59:16.026Z,46.83
2022-08-01T09:01:43.983Z,47.40
2022-08-01T09:04:11.987Z,48.33
2022-08-01T09:06:39.310Z,45.53
2022-08-01T09:09:07.260Z,46.53
2022-08-01T09:11:34.452Z,48.03
2022-08-01T09:14:16.103Z,49.10
2022-08-01T09:16:48.856Z,49.88
2022-08-01T09:19:40.526Z,49.83
2022-08-01T09:22:08.816Z,51.28
2022-08-01T09:24:36.880Z,49.67
2022-08-01T09:27:21.964Z,63.47
2022-08-01T09:30:01.134Z,59.38
2022-08-01T09:32:36.053Z,57.22
2022-08-01T09:35:30.890Z,59.95
2022-08-01T09:38:16.628Z,60.20
2022-08-01T09:40:49.413Z,66.03
2022-08-01T09:43:16.186Z,66.80
2022-08-01T09:45:43.817Z,70.38
2022-08-01T09:48:18.933Z,75.57
2022-08-01T09:50:50.158Z,71.00
2022-08-01T09:53:24.495Z,75.95
2022-08-01T09:56:10.678Z,77.05
2022-08-01T09:59:00.420Z,74.53
2022-08-01T10:01:36.569Z,74.13
2022-08-01T10:04:20.638Z,81.32
2022-08-01T10:06:55.861Z,86.63
2022-08-01T10:09:39.619Z,90.97
2022-08-01T10:12:08.839Z,93.53
2022-08-01T10:14:37.699Z,99.10
2022-08-01T10:17:07.863Z,103.82
2022-08-01T10:19:38.870Z,113.40
2022-08-01T10:22:08.554Z,114.97
2022-08-01T10:24:41.083Z,122.50
2022-08-01T10:27:12.400Z,132.15
2022-08-01T10:30:05.156Z,137.90
2022-08-01T10:35:06.808Z,127.00
2022-08-01T10:37:52.440Z,147.65
2022-08-01T10:40:36.992Z,117.45
2022-08-01T10:43:04.648Z,125.05
2022-08-01T10:45:31.781Z,146.70
2022-08-01T10:48:03.287Z,137.82
2022-08-01T10:50:43.348Z,149.32
2022-08-01T10:53:24.426Z,128.80
2022-08-01T10:56:04.256Z,125.07
2022-08-01T10:58:42.774Z,120.80
2022-08-01T11:01:23.341Z,135.20
2022-08-01T11:04:01.574Z,121.45
2022-08-01T11:06:34.336Z,150.63
2022-08-01T11:09:36.977Z,130.23
2022-08-01T11:12:23.145Z,132.77
2022-08-01T11:14:59.679Z,132.80
2022-08-01T11:17:37.553Z,138.80
2022-08-01T11:20:34.253Z,147.20
2022-08-01T11:23:02.046Z,151.10
2022-08-01T11:26:05.601Z,154.48
2022-08-01T11:28:32.307Z,156.57
2022-08-01T11:31:14.032Z,165.30
2022-08-01T11:33:40.659Z,166.32
2022-08-01T11:36:36.992Z,173.93
2022-08-01T11:39:13.812Z,167.70
2022-08-01T11:41:42.010Z,172.48
2022-08-01T11:44:17.246Z,184.13
2022-08-01T11:47:09.991Z,158.00
2022-08-01T11:49:55.961Z,182.68
2022-08-01T11:52:32.706Z,141.73
2022-08-01T11:55:10.351Z,153.05
2022-08-01T11:57:41.054Z,171.43
2022-08-01T12:00:17.431Z,159.73
2022-08-01T12:02:58.857Z,175.73
2022-08-01T12:05:26.560Z,128.68
2022-08-01T12:07:55.978Z,153.75
2022-08-01T12:10:25.416Z,184.20
2022-08-01T12:13:00.110Z,100.13
2022-08-01T12:15:32.134Z,105.25
2022-08-01T12:18:01.577Z,102.15
2022-08-01T12:20:31.891Z,87.20
2022-08-01T12:23:10.157Z,94.22
2022-08-01T12:25:38.072Z,73.70
2022-08-01T12:28:06.639Z,108.82
2022-08-01T12:30:38.214Z,85.45
2022-08-01T12:33:10.604Z,102.00
2022-08-01T12:35:39.348Z,70.78
2022-08-01T12:38:07.410Z,82.05
2022-08-01T12:40:38.225Z,57.38
2022-08-01T12:43:09.258Z,65.80
2022-08-01T12:45:54.360Z,65.97
2022-08-01T12:48:24.593Z,58.90
2022-08-01T12:50:53.488Z,59.72
2022-08-01T12:53:21.507Z,74.68
2022-08-01T12:55:58.313Z,56.78
2022-08-01T12:58:32.418Z,59.40
2022-08-01T13:01:14.154Z,63.92
2022-08-01T13:03:41.327Z,55.25
2022-08-01T13:06:16.551Z,65.07
2022-08-01T13:08:44.749Z,61.75
2022-08-01T13:11:16.622Z,72.03
2022-08-01T13:13:53.685Z,58.38
2022-08-01T13:16:27.907Z,64.70
2022-08-01T13:19:01.579Z,70.68
2022-08-01T13:21:52.135Z,60.65
2022-08-01T13:24:17.233Z,64.97
2022-08-01T13:26:52.111Z,81.50
2022-08-01T13:29:21.713Z,65.47
2022-08-01T13:31:48.905Z,66.97
2022-08-01T13:34:16.134Z,71.65
2022-08-01T13:36:49.010Z,70.28
2022-08-01T13:39:35.661Z,77.40
2022-08-01T13:42:02.300Z,72.85
2022-08-01T13:44:28.862Z,73.15
2022-08-01T13:46:57.178Z,80.15
2022-08-01T13:49:24.401Z,87.07
2022-08-01T13:51:51.684Z,82.43
2022-08-01T13:54:19.053Z,94.43
2022-08-01T13:56:45.723Z,110.55
2022-08-01T13:59:12.556Z,109.55
2022-08-01T14:01:39.190Z,94.38
2022-08-01T14:04:06.166Z,105.80
2022-08-01T14:06:33.815Z,89.90
2022-08-01T14:09:01.342Z,85.15
2022-08-01T14:11:30.642Z,90.47
2022-08-01T14:14:04.783Z,89.72
2022-08-01T14:16:35.294Z,93.05
2022-08-01T14:19:04.039Z,80.78
2022-08-01T14:21:30.707Z,74.38
2022-08-01T14:23:57.208Z,85.10
2022-08-01T14:26:23.795Z,68.93
2022-08-01T14:28:50.393Z,73.78
2022-08-01T14:31:16.913Z,86.20
2022-08-01T14:33:43.484Z,78.63
2022-08-01T14:36:30.761Z,75.45
2022-08-01T14:39:00.204Z,74.88
2022-08-01T14:41:28.150Z,81.63
2022-08-01T14:43:54.758Z,61.13
2022-08-01T14:46:21.370Z,67.13
2022-08-01T14:48:47.986Z,61.63
2022-08-01T14:51:14.576Z,60.95
2022-08-01T14:53:45.833Z,56.75
2022-08-01T14:56:13.259Z,52.00
2022-08-01T14:58:39.784Z,50.35
2022-08-01T15:01:06.870Z,43.28
2022-08-01T15:03:33.830Z,42.53
2022-08-01T15:06:00.578Z,41.53
2022-08-01T15:08:27.461Z,36.85
2022-08-01T15:10:54.023Z,32.78
2022-08-01T15:13:20.722Z,30.63
2022-08-01T15:15:47.922Z,28.40
2022-08-01T15:18:14.634Z,24.60
2022-08-01T15:20:41.713Z,22.08
2022-08-01T15:23:08.387Z,21.60
2022-08-01T15:25:40.897Z,19.42
2022-08-01T15:28:12.403Z,17.80
2022-08-01T15:30:39.657Z,18.08
2022-08-01T15:33:06.487Z,17.98
2022-08-01T15:35:33.435Z,18.23
2022-08-01T15:38:00.091Z,17.90
2022-08-01T15:40:27.700Z,18.52
2022-08-01T15:42:54.292Z,19.50
2022-08-01T15:45:47.245Z,19.17
2022-08-01T15:48:08.923Z,19.67
2022-08-01T15:50:35.641Z,19.75
2022-08-01T15:53:02.222Z,19.23
2022-08-01T15:55:28.819Z,19.80
2022-08-01T15:57:56.065Z,18.77
2022-08-01T16:00:22.821Z,21.23
2022-08-01T16:02:50.546Z,18.40
2022-08-01T16:05:20.469Z,17.73
2022-08-01T16:07:59.235Z,19.15
2022-08-01T16:10:28.835Z,17.85
2022-08-01T16:12:55.384Z,18.15
2022-08-01T16:15:22.693Z,17.60
2022-08-01T16:18:01.986Z,18.85
2022-08-01T16:20:29.262Z,19.13
2022-08-01T16:22:55.825Z,19.17
2022-08-01T16:25:22.399Z,20.25
2022-08-01T16:27:48.984Z,20.00
2022-08-01T16:30:15.568Z,21.13
2022-08-01T16:32:45.449Z,19.80
2022-08-01T16:35:15.416Z,20.60
2022-08-01T16:37:42.624Z,23.38
2022-08-01T16:40:09.568Z,23.70
2022-08-01T16:42:36.153Z,24.42
2022-08-01T16:45:08.655Z,21.95
2022-08-01T16:47:39.511Z,25.67
2022-08-01T16:50:06.398Z,26.80
2022-08-01T16:52:32.907Z,29.52
2022-08-01T16:54:59.516Z,29.52
2022-08-01T16:57:26.039Z,33.05
2022-08-01T16:59:52.607Z,35.03
2022-08-01T17:02:19.175Z,41.75
2022-08-01T17:04:45.763Z,44.60
2022-08-01T17:07:12.309Z,46.67
2022-08-01T17:09:43.323Z,54.05
2022-08-01T17:12:10.675Z,49.80
2022-08-01T17:14:39.871Z,56.67
2022-08-01T17:17:07.387Z,59.50
2022-08-01T17:19:34.437Z,58.22
2022-08-01T17:22:01.065Z,59.50
2022-08-01T17:24:27.903Z,62.85
2022-08-01T17:26:54.571Z,70.65
2022-08-01T17:29:21.203Z,72.45
2022-08-01T17:31:47.898Z,71.70
2022-08-01T17:34:14.666Z,75.38
2022-08-01T17:36:41.411Z,75.78
2022-08-01T17:39:08.821Z,84.63
2022-08-01T17:41:35.619Z,91.70
2022-08-01T17:44:02.216Z,93.82
2022-08-01T17:46:28.736Z,98.18
2022-08-01T17:48:55.323Z,120.40
2022-08-01T17:51:23.003Z,140.82
2022-08-01T17:53:56.132Z,170.98
2022-08-01T17:56:24.462Z,187.68
2022-08-01T17:58:52.246Z,192.23
2022-08-01T18:01:20.545Z,212.98
2022-08-01T18:03:48.065Z,246.55
2022-08-01T18:06:19.371Z,256.38
2022-08-01T18:08:47.153Z,279.42
2022-08-01T18:11:15.085Z,278.73
2022-08-01T18:13:41.669Z,281.40
2022-08-01T18:16:11.292Z,290.48
2022-08-01T18:18:39.108Z,287.75
2022-08-01T18:21:07.061Z,311.77
2022-08-01T18:23:35.095Z,285.73
2022-08-01T18:26:03.049Z,299.20
2022-08-01T18:28:34.049Z,280.38
2022-08-01T18:31:03.587Z,259.83
2022-08-01T18:33:30.184Z,291.90
2022-08-01T18:36:03.793Z,259.08
2022-08-01T18:38:33.173Z,269.88
2022-08-01T18:41:00.770Z,234.18
2022-08-01T18:43:27.629Z,245.25
2022-08-01T18:45:56.936Z,256.73
2022-08-01T18:48:23.643Z,273.92
2022-08-01T18:50:50.175Z,354.13
2022-08-01T18:53:18.768Z,302.50
2022-08-01T18:55:46.127Z,341.88
2022-08-01T18:58:12.705Z,336.88
2022-08-01T19:00:39.990Z,366.30
2022-08-01T19:03:07.751Z,317.63
2022-08-01T19:05:35.819Z,346.52
2022-08-01T19:08:06.822Z,379.77
2022-08-01T19:10:36.108Z,375.80
2022-08-01T19:13:03.040Z,381.77
2022-08-01T19:15:29.842Z,361.08
2022-08-01T19:17:56.478Z,381.98
2022-08-01T19:20:23.247Z,378.52
2022-08-01T19:22:51.923Z,377.00
2022-08-01T19:25:18.498Z,315.45
2022-08-01T19:27:48.065Z,263.33
2022-08-01T19:30:17.319Z,238.77
2022-08-01T19:32:45.817Z,220.95
2022-08-01T19:35:14.586Z,223.52
2022-08-01T19:37:47.247Z,221.95
2022-08-01T19:40:26.834Z,206.88
2022-08-01T19:42:56.402Z,196.02
2022-08-01T19:45:23.174Z,198.38
2022-08-01T19:47:57.316Z,213.35
2022-08-01T19:50:29.158Z,212.60
2022-08-01T19:52:57.587Z,212.82
2022-08-01T19:55:25.184Z,216.82
2022-08-01T19:58:26.307Z,215.98
2022-08-01T20:00:40.621Z,230.98
2022-08-01T20:03:09.092Z,242.60
2022-08-01T20:05:37.260Z,211.10
2022-08-01T20:08:06.675Z,253.85
2022-08-01T20:10:34.191Z,273.75
2022-08-01T20:13:01.424Z,268.15
2022-08-01T20:15:29.323Z,267.33
2022-08-01T20:17:59.634Z,223.07
2022-08-01T20:20:27.523Z,225.40
2022-08-01T20:22:56.932Z,295.15
2022-08-01T20:25:32.070Z,228.55
2022-08-01T20:28:08.716Z,275.30
2022-08-01T20:30:35.348Z,231.93
2022-08-01T20:33:01.912Z,166.18
2022-08-01T20:35:51.454Z,163.15
2022-08-01T20:38:17.342Z,159.63
2022-08-01T20:40:45.584Z,170.45
2022-08-01T20:43:12.327Z,160.18
2022-08-01T20:45:39.248Z,128.30
2022-08-01T20:48:08.068Z,116.53
2022-08-01T20:50:54.911Z,109.28
2022-08-01T20:53:24.428Z,114.07
2022-08-01T20:56:00.803Z,85.88
2022-08-01T20:58:37.000Z,102.28
2022-08-01T21:01:09.663Z,86.47
2022-08-01T21:03:45.345Z,79.78
2022-08-01T21:06:14.751Z,82.75
2022-08-01T21:08:44.135Z,89.65
2022-08-01T21:11:19.530Z,84.55
2022-08-01T21:13:48.069Z,81.57
2022-08-01T21:16:25.339Z,73.57
2022-08-01T21:21:51.004Z,64.57
2022-08-01T21:24:18.961Z,51.60
2022-08-01T21:26:46.531Z,60.95
2022-08-01T21:29:13.977Z,49.38
2022-08-01T21:31:41.661Z,44.30
2022-08-01T21:34:09.217Z,27.95
2022-08-01T21:36:36.678Z,33.97
2022-08-01T21:39:05.844Z,34.72
2022-08-01T21:41:56.742Z,26.05
2022-08-01T21:44:20.019Z,22.15
2022-08-01T21:46:48.242Z,30.80
2022-08-01T21:49:14.998Z,29.40
2022-08-01T21:51:51.673Z,19.42
2022-08-01T21:54:28.542Z,17.48
2022-08-01T21:57:14.261Z,20.30
2022-08-01T22:00:02.181Z,20.05
2022-08-01T22:02:36.621Z,16.38
2022-08-01T22:05:09.259Z,21.95
2022-08-01T22:07:45.983Z,16.33
2022-08-01T22:10:18.375Z,21.90
2022-08-01T22:12:46.180Z,18.85
2022-08-01T22:15:14.077Z,21.75
2022-08-01T22:17:41.855Z,19.92
2022-08-01T22:20:09.215Z,19.27
2022-08-01T22:22:51.429Z,17.50
2022-08-01T22:25:21.087Z,17.90
2022-08-01T22:28:06.335Z,17.77
2022-08-01T22:30:39.886Z,18.45
2022-08-01T22:33:17.129Z,15.68
2022-08-01T22:35:55.563Z,14.00
2022-08-01T22:38:24.392Z,12.45
2022-08-01T22:40:51.038Z,12.13
2022-08-01T22:43:29.377Z,11.48
2022-08-01T22:46:14.602Z,11.18
2022-08-01T22:48:51.231Z,10.52
2022-08-01T22:51:38.241Z,8.55
2022-08-01T22:54:09.853Z,9.10
2022-08-01T22:56:41.449Z,8.88
2022-08-01T22:59:13.852Z,8.15
2022-08-01T23:01:47.552Z,7.47
2022-08-01T23:04:35.140Z,7.07
2022-08-01T23:07:05.915Z,7.05
2022-08-01T23:09:52.972Z,6.28
2022-08-01T23:12:24.496Z,6.03
2022-08-01T23:14:57.290Z,5.65
2022-08-01T23:17:28.802Z,5.60
2022-08-01T23:20:01.657Z,5.28
2022-08-01T23:22:31.210Z,5.80
2022-08-01T23:25:05.057Z,5.40
2022-08-01T23:27:51.540Z,5.20
2022-08-01T23:30:25.386Z,5.25
2022-08-01T23:32:51.887Z,5.95
2022-08-01T23:35:18.464Z,5.70
2022-08-01T23:37:45.133Z,6.53
2022-08-01T23:40:12.315Z,5.22
2022-08-01T23:42:38.991Z,5.45
2022-08-01T23:45:07.005Z,5.38
2022-08-01T23:47:33.601Z,5.32
2022-08-01T23:50:00.278Z,5.30
2022-08-01T23:52:32.339Z,5.30
2022-08-01T23:55:04.523Z,5.60
2022-08-01T23:57:41.777Z,4.90
